Hlavní strana
METAR-TAF:

METAR-TAF

Letiště :

Dalton Municipal Airport

Dalton, Georgie, Spojené státy americké

zeměpisná šířka: 34-43-18N, zeměpisná délka: 084-52-09W, výška: 216 m

Aktuální stav počasí

Zpráva byla vytvořena před 17 minutami, v 14:15 UTC
Severní vítr 5 kt
Teplota 9°C
Vlhkost vzduchu 61%
Tlak 1020 hPa
Viditelnost: 16.1 km
Jasno

METAR: KDNN 031415Z AUTO 36005KT 10SM CLR 09/02 A3012 RMK AO2

Čas: 09:32 (14:32 UTC)


TAF: chybějící

Stav a předpovědi počasí z více než 4 000 letišť (zprávy METAR a TAF).

Červené a žluté tečky na mapě představují dostupné meteorologické stanice.

Když kurzor umístíte na tečku, zobrazí se název stanice.

Pak kliknutím zobrazíte stav a předpověď počasí.

Chcete-li změnit mapu, kliknutím na zelené tlačítko se znaménkem +mapu přiblížíte, kliknutím na zelené tlačítko se znaménkem – mapu oddálíte a kliknutím na zelené šipky přejdete na sousední mapy.


METAR-TAF: